Time;durP1;ratioP1;P1;durP2;ratioP2;P2;SDS_P1;SDS_P2;PMS_P1;PMS_P2;Temp;Humidity;BMP_temperature;BMP_pressure;BME280_temperature;BME280_humidity;BME280_pressure;Samples;Min_cycle;Max_cycle;Signal;HPM_P1;HPM_P2
2024/04/02 00:01:17;;;;;;;18.85;9.60;;;14.80;81.70;;;;;;4974410;28;20019;-77
2024/04/02 00:03:43;;;;;;;23.52;8.82;;;14.80;81.80;;;;;;4969917;28;20038;-77
2024/04/02 00:06:18;;;;;;;16.25;8.85;;;14.80;82.00;;;;;;4978026;28;20054;-79
2024/04/02 00:08:46;;;;;;;21.63;8.60;;;14.80;82.20;;;;;;4975086;28;20060;-77
2024/04/02 00:11:12;;;;;;;22.65;9.68;;;14.80;82.30;;;;;;4974555;28;20019;-76
2024/04/02 00:13:38;;;;;;;18.13;9.20;;;14.80;82.50;;;;;;4974777;28;20023;-77
2024/04/02 00:16:05;;;;;;;27.00;10.20;;;14.70;82.50;;;;;;4974742;28;20034;-77
2024/04/02 00:18:31;;;;;;;24.40;9.60;;;14.80;82.70;;;;;;4973404;28;20026;-76
2024/04/02 00:21:00;;;;;;;23.40;10.40;;;14.80;82.90;;;;;;4974582;28;20077;-76
2024/04/02 00:23:26;;;;;;;23.90;10.30;;;14.70;83.00;;;;;;4974676;28;20031;-77
2024/04/02 00:26:00;;;;;;;19.48;10.00;;;14.70;83.30;;;;;;4974592;28;20042;-77
2024/04/02 00:28:26;;;;;;;15.57;9.02;;;14.70;83.50;;;;;;4969271;28;20042;-77
2024/04/02 00:30:52;;;;;;;19.92;9.75;;;14.70;83.60;;;;;;4976503;28;20398;-76
2024/04/02 00:33:17;;;;;;;14.73;9.23;;;14.70;83.60;;;;;;4988829;28;20487;-75
2024/04/02 00:35:43;;;;;;;17.67;9.20;;;14.70;83.60;;;;;;4974492;28;20023;-77
2024/04/02 00:38:09;;;;;;;22.83;9.70;;;14.70;83.80;;;;;;4966343;28;20035;-77
2024/04/02 00:40:40;;;;;;;21.70;9.70;;;14.70;83.80;;;;;;4973787;28;20483;-79
2024/04/02 00:43:07;;;;;;;23.70;10.38;;;14.60;84.00;;;;;;4972303;28;20121;-76
2024/04/02 00:45:33;;;;;;;25.90;10.55;;;14.60;84.30;;;;;;4972637;28;20357;-76
2024/04/02 00:47:59;;;;;;;30.60;10.02;;;14.60;84.40;;;;;;4966008;28;20097;-77
2024/04/02 00:50:26;;;;;;;23.45;9.20;;;14.60;84.60;;;;;;4973921;28;20029;-76
2024/04/02 00:52:52;;;;;;;19.00;10.02;;;14.60;84.90;;;;;;4973937;28;20023;-78
2024/04/02 00:55:18;;;;;;;19.38;9.27;;;14.50;84.90;;;;;;4973897;28;20030;-76
2024/04/02 00:57:44;;;;;;;23.10;10.57;;;14.50;85.10;;;;;;4973901;28;20039;-75
2024/04/02 01:00:10;;;;;;;23.55;9.85;;;14.50;85.30;;;;;;4972302;28;20030;-76
2024/04/02 01:02:36;;;;;;;21.67;9.55;;;14.50;85.50;;;;;;4973099;28;20031;-77
2024/04/02 01:05:02;;;;;;;17.95;9.77;;;14.40;85.60;;;;;;4972620;28;20110;-77
2024/04/02 01:07:28;;;;;;;22.10;10.27;;;14.40;86.00;;;;;;4972563;28;20442;-76
2024/04/02 01:09:54;;;;;;;25.42;10.43;;;14.30;86.00;;;;;;4973550;28;20113;-76
2024/04/02 01:12:20;;;;;;;18.07;8.87;;;14.40;86.30;;;;;;4972473;28;20111;-76
2024/04/02 01:14:46;;;;;;;20.48;9.55;;;14.30;86.30;;;;;;4974026;28;20034;-76
2024/04/02 01:17:12;;;;;;;23.17;10.32;;;14.30;86.60;;;;;;4972109;28;20384;-76
2024/04/02 01:19:39;;;;;;;18.80;10.45;;;14.30;86.80;;;;;;4973670;28;20090;-76
2024/04/02 01:22:07;;;;;;;24.83;9.93;;;14.30;87.10;;;;;;4973348;28;20466;-75
2024/04/02 01:24:33;;;;;;;16.13;10.57;;;14.20;87.10;;;;;;4973497;28;20071;-75
2024/04/02 01:27:02;;;;;;;22.00;10.05;;;14.30;87.20;;;;;;4973415;28;20451;-77
2024/04/02 01:29:28;;;;;;;21.98;8.82;;;14.30;87.40;;;;;;4973453;28;20077;-75
2024/04/02 01:31:54;;;;;;;25.85;9.90;;;14.30;87.50;;;;;;4971989;28;20057;-76
2024/04/02 01:34:20;;;;;;;23.17;10.40;;;14.20;87.50;;;;;;4972074;28;20483;-76
2024/04/02 01:36:46;;;;;;;21.92;9.73;;;14.20;87.70;;;;;;4973155;28;20026;-75
2024/04/02 01:39:11;;;;;;;22.83;10.02;;;14.20;87.90;;;;;;4972187;28;20388;-76
2024/04/02 01:41:37;;;;;;;19.33;10.20;;;14.20;88.20;;;;;;4973326;28;20027;-76
2024/04/02 01:44:04;;;;;;;20.80;9.98;;;14.10;88.30;;;;;;4973128;28;20519;-76
2024/04/02 01:46:30;;;;;;;25.35;10.00;;;14.10;88.60;;;;;;4973578;28;20058;-76
2024/04/02 01:48:56;;;;;;;22.70;10.65;;;14.10;88.60;;;;;;4975393;28;20049;-76
2024/04/02 01:51:22;;;;;;;25.98;9.35;;;14.10;88.80;;;;;;4973864;28;20019;-75
2024/04/02 01:53:59;;;;;;;23.00;10.27;;;14.10;89.00;;;;;;4972332;28;20034;-75
2024/04/02 01:56:28;;;;;;;25.00;9.90;;;14.10;89.20;;;;;;4973238;28;20124;-76
2024/04/02 01:59:00;;;;;;;19.08;10.70;;;14.10;89.20;;;;;;4972962;28;20061;-75
2024/04/02 02:01:26;;;;;;;18.13;9.63;;;14.00;89.30;;;;;;4971915;28;20062;-76
2024/04/02 02:03:52;;;;;;;25.83;10.50;;;14.00;89.60;;;;;;4973059;28;20074;-75
2024/04/02 02:06:18;;;;;;;28.77;10.60;;;14.00;89.80;;;;;;4973033;28;20494;-77
2024/04/02 02:08:43;;;;;;;21.08;9.25;;;13.90;89.90;;;;;;4973031;28;20027;-76
2024/04/02 02:11:09;;;;;;;21.98;11.23;;;14.00;90.10;;;;;;4972993;28;20522;-77
2024/04/02 02:13:36;;;;;;;27.27;11.32;;;13.90;90.10;;;;;;4973085;28;20061;-76
2024/04/02 02:16:02;;;;;;;23.80;11.05;;;13.90;90.30;;;;;;4971874;28;20118;-77
2024/04/02 02:18:32;;;;;;;23.40;9.65;;;13.80;90.30;;;;;;4971990;28;20023;-76
2024/04/02 02:20:58;;;;;;;22.20;9.80;;;13.80;90.40;;;;;;4972927;28;20484;-77
2024/04/02 02:23:25;;;;;;;23.17;10.35;;;13.90;90.50;;;;;;4971523;28;20027;-77
2024/04/02 02:25:52;;;;;;;23.17;10.02;;;13.90;90.40;;;;;;4972871;28;20034;-78
2024/04/02 02:28:18;;;;;;;16.17;10.03;;;13.80;90.40;;;;;;4972734;28;20042;-76
2024/04/02 02:30:45;;;;;;;22.20;10.85;;;13.80;90.60;;;;;;4972902;28;20043;-77
2024/04/02 02:33:10;;;;;;;29.10;10.63;;;13.70;90.60;;;;;;4973046;28;20027;-75
2024/04/02 02:35:37;;;;;;;29.98;11.35;;;13.70;90.80;;;;;;4972720;28;20029;-76
2024/04/02 02:38:03;;;;;;;20.95;10.43;;;13.70;90.80;;;;;;4971609;28;20027;-77
2024/04/02 02:40:30;;;;;;;30.38;11.70;;;13.80;90.80;;;;;;4972691;28;20027;-77
2024/04/02 02:42:56;;;;;;;28.48;11.13;;;13.80;90.80;;;;;;4972652;28;20042;-77
2024/04/02 02:45:22;;;;;;;22.80;10.82;;;13.80;90.70;;;;;;4971409;28;20030;-76
2024/04/02 02:47:49;;;;;;;22.58;9.73;;;13.70;90.80;;;;;;4971298;28;20038;-75
2024/04/02 02:50:14;;;;;;;28.05;11.02;;;13.70;90.80;;;;;;4971492;28;20564;-76
2024/04/02 02:52:40;;;;;;;25.90;11.60;;;13.70;90.80;;;;;;4972672;28;20106;-75
2024/04/02 02:55:06;;;;;;;24.42;11.27;;;13.80;90.80;;;;;;4972730;28;20062;-75
2024/04/02 02:57:32;;;;;;;24.40;10.90;;;13.80;90.80;;;;;;4972536;28;20022;-75
2024/04/02 02:59:58;;;;;;;23.35;10.80;;;13.80;90.90;;;;;;4972608;28;20102;-75
2024/04/02 03:02:23;;;;;;;26.55;10.90;;;13.70;90.90;;;;;;4971223;28;20074;-77
2024/04/02 03:04:50;;;;;;;20.92;11.10;;;13.70;91.00;;;;;;4973025;28;20439;-77
2024/04/02 03:07:16;;;;;;;26.37;10.20;;;13.70;91.00;;;;;;4976185;28;20059;-76
2024/04/02 03:09:42;;;;;;;22.63;10.18;;;13.60;91.10;;;;;;4962471;28;20039;-76
2024/04/02 03:12:08;;;;;;;22.30;10.52;;;13.60;91.20;;;;;;4973663;28;20538;-76
2024/04/02 03:14:34;;;;;;;26.08;11.40;;;13.60;91.30;;;;;;4974934;28;20502;-77
2024/04/02 03:17:00;;;;;;;31.08;11.50;;;13.60;91.40;;;;;;4975917;28;20035;-77
2024/04/02 03:19:28;;;;;;;25.65;10.88;;;13.50;91.40;;;;;;4975794;28;20026;-77
2024/04/02 03:21:54;;;;;;;26.13;11.60;;;13.50;91.60;;;;;;4975699;28;20058;-76
2024/04/02 03:24:19;;;;;;;21.60;11.75;;;13.50;91.60;;;;;;4975896;28;20496;-77
2024/04/02 03:26:48;;;;;;;26.75;11.43;;;13.50;91.70;;;;;;4974255;28;20041;-76
2024/04/02 03:29:14;;;;;;;33.13;12.25;;;13.50;91.70;;;;;;4965263;28;20039;-75
2024/04/02 03:31:40;;;;;;;26.63;11.45;;;13.50;91.80;;;;;;4971017;28;20031;-76
2024/04/02 03:34:06;;;;;;;30.60;13.38;;;13.50;91.80;;;;;;4973439;28;20484;-75
2024/04/02 03:36:31;;;;;;;31.30;12.98;;;13.50;91.80;;;;;;4968691;28;20391;-76
2024/04/02 03:38:57;;;;;;;26.90;12.15;;;13.50;91.90;;;;;;4975382;28;20126;-75
2024/04/02 03:41:23;;;;;;;36.28;12.80;;;13.60;91.80;;;;;;4975535;28;20106;-76
2024/04/02 03:43:49;;;;;;;37.95;13.13;;;13.60;91.80;;;;;;4975258;28;20034;-76
2024/04/02 03:46:15;;;;;;;26.98;11.68;;;13.60;91.80;;;;;;4975270;28;20097;-77
2024/04/02 03:48:42;;;;;;;31.42;11.40;;;13.70;91.80;;;;;;4973812;28;20049;-76
2024/04/02 03:51:08;;;;;;;35.60;12.50;;;13.70;91.80;;;;;;4975428;28;20098;-77
2024/04/02 03:53:34;;;;;;;33.67;11.75;;;13.80;91.70;;;;;;4975344;28;20077;-75
2024/04/02 03:56:02;;;;;;;22.60;11.38;;;13.80;91.70;;;;;;4974985;28;20066;-75
2024/04/02 03:58:29;;;;;;;23.75;11.57;;;13.90;91.70;;;;;;4974994;28;20090;-75
2024/04/02 04:00:56;;;;;;;26.70;11.67;;;13.90;91.60;;;;;;4973707;28;20101;-75
2024/04/02 04:03:23;;;;;;;34.50;12.70;;;13.90;91.50;;;;;;4975085;28;20769;-76
2024/04/02 04:05:57;;;;;;;27.60;12.85;;;14.00;91.50;;;;;;4973748;28;20031;-76
2024/04/02 04:08:24;;;;;;;34.65;12.32;;;14.00;91.50;;;;;;4974662;28;20030;-77
2024/04/02 04:10:50;;;;;;;42.88;13.90;;;14.00;91.40;;;;;;4974945;28;20026;-77
2024/04/02 04:13:15;;;;;;;19.13;10.50;;;14.00;91.50;;;;;;4974654;28;20039;-75
2024/04/02 04:15:41;;;;;;;27.25;11.40;;;14.00;91.60;;;;;;4974729;28;20089;-76
2024/04/02 04:18:07;;;;;;;28.48;11.80;;;14.00;91.60;;;;;;4973331;28;20034;-78
2024/04/02 04:20:34;;;;;;;26.45;11.85;;;14.00;91.60;;;;;;4974812;28;20027;-76
2024/04/02 04:23:00;;;;;;;33.33;11.67;;;14.10;91.60;;;;;;4969630;28;20034;-76
2024/04/02 04:25:26;;;;;;;31.45;12.10;;;14.20;91.60;;;;;;4974239;28;20105;-77
2024/04/02 04:27:51;;;;;;;20.85;10.48;;;14.30;91.40;;;;;;4965526;28;20125;-77
2024/04/02 04:30:18;;;;;;;21.58;10.77;;;14.50;91.20;;;;;;4974312;28;20023;-75
2024/04/02 04:32:43;;;;;;;32.08;11.75;;;14.70;90.90;;;;;;4974271;28;20022;-77
2024/04/02 04:35:09;;;;;;;28.77;11.70;;;14.80;90.70;;;;;;4970756;28;20027;-75
2024/04/02 04:37:35;;;;;;;23.30;11.38;;;14.90;90.60;;;;;;4974332;28;20022;-77
2024/04/02 04:40:01;;;;;;;22.60;11.63;;;15.10;90.40;;;;;;4974218;28;20054;-76
2024/04/02 04:42:27;;;;;;;23.25;11.77;;;15.50;90.00;;;;;;4973968;28;20110;-77
2024/04/02 04:44:53;;;;;;;27.75;11.07;;;15.70;89.10;;;;;;4973982;28;20054;-75
2024/04/02 04:47:19;;;;;;;33.60;11.63;;;15.90;88.00;;;;;;4972873;28;20031;-77
2024/04/02 04:49:45;;;;;;;27.02;10.68;;;16.00;87.40;;;;;;4970496;28;20042;-74
2024/04/02 04:52:11;;;;;;;34.00;12.77;;;16.00;87.00;;;;;;4973841;28;20188;-79
2024/04/02 04:54:37;;;;;;;19.75;11.23;;;15.80;87.00;;;;;;4973766;28;20023;-75
2024/04/02 04:57:03;;;;;;;23.98;10.35;;;15.70;87.10;;;;;;4973616;28;20098;-76
2024/04/02 04:59:28;;;;;;;27.05;11.15;;;15.50;87.90;;;;;;4972402;28;20496;-77
2024/04/02 05:01:54;;;;;;;30.95;11.45;;;15.30;88.60;;;;;;4973463;28;20027;-75
2024/04/02 05:04:20;;;;;;;22.75;11.23;;;15.10;89.30;;;;;;4971680;28;20030;-76
2024/04/02 05:06:47;;;;;;;19.42;10.85;;;15.10;89.70;;;;;;4970079;28;20038;-77
2024/04/02 05:09:16;;;;;;;32.07;14.37;;;15.10;89.80;;;;;;4973585;28;20039;-76
2024/04/02 05:11:42;;;;;;;31.00;11.20;;;15.00;90.00;;;;;;4973604;28;20480;-77
2024/04/02 05:14:08;;;;;;;24.73;11.32;;;15.10;90.00;;;;;;4960922;28;20086;-77
2024/04/02 05:16:34;;;;;;;32.53;11.63;;;15.10;89.90;;;;;;4958047;28;20496;-76
2024/04/02 05:19:01;;;;;;;31.35;10.75;;;15.20;89.90;;;;;;4971362;28;20023;-78
2024/04/02 05:21:27;;;;;;;28.15;11.10;;;15.30;89.50;;;;;;4968630;28;20019;-76
2024/04/02 05:23:53;;;;;;;24.40;12.07;;;15.40;89.40;;;;;;4973541;28;20115;-78
2024/04/02 05:26:19;;;;;;;27.00;11.77;;;15.40;89.30;;;;;;4973335;28;20053;-77
2024/04/02 05:28:45;;;;;;;25.30;11.45;;;15.50;89.00;;;;;;4972965;28;20123;-78
2024/04/02 05:31:11;;;;;;;26.63;11.70;;;15.50;88.70;;;;;;4971030;28;20019;-79
2024/04/02 05:33:41;;;;;;;34.30;12.52;;;15.70;88.50;;;;;;4970500;28;20105;-78
2024/04/02 05:36:07;;;;;;;41.53;13.32;;;15.80;87.90;;;;;;4973279;28;20138;-77
2024/04/02 05:38:33;;;;;;;24.13;11.48;;;15.90;87.50;;;;;;4973121;28;20031;-75
2024/04/02 05:40:59;;;;;;;30.95;11.82;;;16.20;87.00;;;;;;4973035;28;20035;-77
2024/04/02 05:43:27;;;;;;;35.13;13.55;;;16.30;86.30;;;;;;4971666;28;20027;-78
2024/04/02 05:45:53;;;;;;;22.98;12.00;;;16.50;86.00;;;;;;4972602;28;20105;-76
2024/04/02 05:48:19;;;;;;;32.80;12.23;;;16.50;85.50;;;;;;4972761;28;20065;-75
2024/04/02 05:50:55;;;;;;;38.42;13.80;;;16.70;85.10;;;;;;4972708;28;20054;-76
2024/04/02 05:53:20;;;;;;;34.25;12.50;;;16.80;84.90;;;;;;4972842;28;20037;-76
2024/04/02 05:55:47;;;;;;;31.63;13.50;;;17.10;84.10;;;;;;4968841;28;20035;-78
2024/04/02 05:58:13;;;;;;;34.58;12.70;;;17.20;83.30;;;;;;4971361;28;20070;-77
2024/04/02 06:00:39;;;;;;;33.33;13.00;;;17.50;82.70;;;;;;4971523;28;20388;-77
2024/04/02 06:03:05;;;;;;;36.78;13.32;;;17.70;81.80;;;;;;4971908;28;20101;-78
2024/04/02 06:05:30;;;;;;;30.98;14.23;;;17.90;81.10;;;;;;4971363;28;20133;-78
2024/04/02 06:07:57;;;;;;;38.83;13.32;;;17.90;81.10;;;;;;4969357;28;20035;-77
2024/04/02 06:10:23;;;;;;;44.22;14.43;;;17.90;81.30;;;;;;4971304;28;20098;-77
2024/04/02 06:12:49;;;;;;;37.45;15.32;;;18.30;80.70;;;;;;4967654;28;20391;-76
2024/04/02 06:15:15;;;;;;;30.70;13.90;;;18.70;79.20;;;;;;4966479;28;20023;-76
2024/04/02 06:17:41;;;;;;;32.35;14.23;;;18.80;78.10;;;;;;4971248;28;20027;-77
2024/04/02 06:20:07;;;;;;;35.33;12.90;;;18.90;78.40;;;;;;4972605;28;20022;-78
2024/04/02 06:22:35;;;;;;;36.28;15.13;;;19.10;77.50;;;;;;4972665;28;20019;-76
2024/04/02 06:25:02;;;;;;;46.67;14.95;;;19.40;76.40;;;;;;4971018;28;20050;-75
2024/04/02 06:27:28;;;;;;;36.03;13.82;;;19.70;75.50;;;;;;4972582;28;20484;-75
2024/04/02 06:29:54;;;;;;;46.42;15.10;;;20.00;74.50;;;;;;4971394;28;20035;-77
2024/04/02 06:32:21;;;;;;;41.22;13.07;;;20.30;73.40;;;;;;4972554;28;20440;-77
2024/04/02 06:34:46;;;;;;;31.15;13.80;;;20.60;72.10;;;;;;4972860;28;20027;-76
2024/04/02 06:37:12;;;;;;;31.95;13.10;;;20.00;72.70;;;;;;4972775;28;20058;-77
2024/04/02 06:39:38;;;;;;;36.83;14.10;;;19.40;74.20;;;;;;4973196;28;20022;-78
2024/04/02 06:42:04;;;;;;;33.50;13.55;;;19.10;75.20;;;;;;4976447;28;20507;-77
2024/04/02 06:44:30;;;;;;;29.55;12.98;;;18.80;76.10;;;;;;4975921;28;20026;-77
2024/04/02 06:46:56;;;;;;;37.90;11.32;;;18.60;76.90;;;;;;4974664;28;20030;-77
2024/04/02 06:49:22;;;;;;;37.30;13.68;;;18.20;77.80;;;;;;4975439;28;20124;-76
2024/04/02 06:51:48;;;;;;;35.47;12.82;;;18.00;78.90;;;;;;4976183;28;20101;-78
2024/04/02 06:54:15;;;;;;;35.90;12.68;;;17.90;79.40;;;;;;4976064;28;20031;-77
2024/04/02 06:56:41;;;;;;;38.55;12.68;;;18.00;79.90;;;;;;4967806;28;20023;-79
2024/04/02 06:59:06;;;;;;;39.53;14.38;;;18.20;79.30;;;;;;4969408;28;20360;-77
2024/04/02 07:01:32;;;;;;;36.17;13.52;;;18.30;79.00;;;;;;4977291;28;20098;-77
2024/04/02 07:03:58;;;;;;;53.78;16.50;;;18.50;78.70;;;;;;4976408;28;20399;-77
2024/04/02 07:06:24;;;;;;;38.38;14.23;;;19.10;77.70;;;;;;4976033;28;20023;-77
2024/04/02 07:08:50;;;;;;;43.78;15.57;;;20.00;76.10;;;;;;4975277;28;20468;-77
2024/04/02 07:11:15;;;;;;;55.75;15.02;;;21.30;73.00;;;;;;4976073;28;20030;-78
2024/04/02 07:13:41;;;;;;;54.72;16.20;;;22.80;69.30;;;;;;4975730;28;20476;-79
2024/04/02 07:16:07;;;;;;;43.53;15.48;;;24.00;65.40;;;;;;4975360;28;20035;-78
2024/04/02 07:18:36;;;;;;;45.50;16.60;;;24.80;62.20;;;;;;4975432;28;20019;-78
2024/04/02 07:21:02;;;;;;;50.45;15.15;;;24.80;60.90;;;;;;4975576;28;20034;-77
2024/04/02 07:23:28;;;;;;;45.22;16.10;;;25.30;60.20;;;;;;4971770;28;20023;-78
2024/04/02 07:25:54;;;;;;;39.67;13.03;;;25.70;58.30;;;;;;4975219;28;20057;-77
2024/04/02 07:28:21;;;;;;;39.73;13.90;;;25.20;58.10;;;;;;4977623;28;20086;-77
2024/04/02 07:30:47;;;;;;;29.73;11.77;;;25.10;58.90;;;;;;4979361;28;20400;-78
2024/04/02 07:33:13;;;;;;;39.33;13.75;;;25.90;57.50;;;;;;4975328;28;20076;-77
2024/04/02 07:35:39;;;;;;;26.33;10.82;;;25.90;56.70;;;;;;4966916;28;20146;-79
2024/04/02 07:38:09;;;;;;;36.28;12.38;;;26.10;56.10;;;;;;4974258;28;20087;-80
2024/04/02 07:40:35;;;;;;;42.83;14.27;;;25.70;56.20;;;;;;4975750;28;20027;-78
2024/04/02 07:43:01;;;;;;;38.72;13.38;;;25.60;56.70;;;;;;4974924;28;20034;-79
2024/04/02 07:45:27;;;;;;;34.80;13.15;;;26.10;55.20;;;;;;4973544;28;20030;-79
2024/04/02 07:47:53;;;;;;;47.10;14.82;;;25.90;55.60;;;;;;4973715;28;20580;-79
2024/04/02 07:50:19;;;;;;;40.87;16.17;;;26.00;55.40;;;;;;4973690;28;20049;-78
2024/04/02 07:52:45;;;;;;;45.05;13.80;;;26.40;54.60;;;;;;4971507;28;20388;-77
2024/04/02 07:55:11;;;;;;;45.15;14.70;;;26.40;54.70;;;;;;4969402;28;20031;-76
2024/04/02 07:57:37;;;;;;;36.88;14.23;;;;;;;;;;4974152;28;20030;-78
2024/04/02 08:00:04;;;;;;;38.40;12.87;;;26.40;53.30;;;;;;4974836;28;20031;-77
2024/04/02 08:02:29;;;;;;;37.30;14.43;;;26.70;54.00;;;;;;4974323;28;20023;-78
2024/04/02 08:04:55;;;;;;;32.47;13.75;;;26.90;53.40;;;;;;4974176;28;20035;-79
2024/04/02 08:07:21;;;;;;;35.65;12.20;;;27.70;52.60;;;;;;4975031;28;20050;-76
2024/04/02 08:09:47;;;;;;;30.08;11.52;;;26.70;52.10;;;;;;4974647;28;20027;-79
2024/04/02 08:12:13;;;;;;;35.78;12.63;;;25.00;55.10;;;;;;4972466;28;20102;-77
2024/04/02 08:14:39;;;;;;;40.10;12.10;;;24.10;57.40;;;;;;4974112;28;20089;-77
2024/04/02 08:17:05;;;;;;;52.80;17.27;;;24.20;57.80;;;;;;4974255;28;20472;-78
2024/04/02 08:19:31;;;;;;;41.50;13.23;;;25.30;56.60;;;;;;4974345;28;20085;-78
2024/04/02 08:21:57;;;;;;;35.67;13.43;;;26.70;54.20;;;;;;4974242;28;20026;-79
2024/04/02 08:24:26;;;;;;;47.70;16.75;;;26.70;53.10;;;;;;4973133;28;20041;-79
2024/04/02 08:26:52;;;;;;;48.03;13.90;;;26.40;53.60;;;;;;4974213;28;20030;-77
2024/04/02 08:29:18;;;;;;;46.43;17.37;;;26.80;53.40;;;;;;4974210;28;20388;-78
2024/04/02 08:31:44;;;;;;;61.53;18.30;;;27.30;52.80;;;;;;4973534;28;20107;-79
2024/04/02 08:34:10;;;;;;;37.30;13.60;;;27.70;52.20;;;;;;4974416;28;20173;-78
2024/04/02 08:36:37;;;;;;;54.10;16.27;;;28.00;50.80;;;;;;4973839;28;20026;-78
2024/04/02 08:39:04;;;;;;;55.08;16.92;;;27.50;51.40;;;;;;4962141;28;20108;-78
2024/04/02 08:41:30;;;;;;;64.05;17.50;;;27.80;51.70;;;;;;4974161;28;20361;-77
2024/04/02 08:43:57;;;;;;;48.60;14.80;;;29.10;50.50;;;;;;4974008;28;20034;-77
2024/04/02 08:46:26;;;;;;;40.67;13.70;;;29.50;48.70;;;;;;4968018;28;20029;-81
2024/04/02 08:48:57;;;;;;;35.95;12.07;;;28.60;48.90;;;;;;4975250;28;20048;-79
2024/04/02 08:51:23;;;;;;;45.45;15.05;;;28.90;48.80;;;;;;4974345;28;20062;-79
2024/04/02 08:53:49;;;;;;;34.93;14.87;;;30.20;48.10;;;;;;4974052;28;20454;-79
2024/04/02 08:56:16;;;;;;;35.42;13.02;;;30.50;47.10;;;;;;4973322;28;20058;-79
2024/04/02 08:58:46;;;;;;;52.08;15.55;;;30.30;46.10;;;;;;4971183;28;20050;-79
2024/04/02 09:01:14;;;;;;;36.15;15.00;;;29.90;47.10;;;;;;4966131;28;20059;-79
2024/04/02 09:03:40;;;;;;;54.97;16.42;;;30.30;46.80;;;;;;4966225;28;20089;-79
2024/04/02 09:06:06;;;;;;;43.05;14.27;;;31.30;46.10;;;;;;4970993;28;20384;-79
2024/04/02 09:08:48;;;;;;;42.05;13.05;;;32.20;45.00;;;;;;4972334;28;20034;-78
2024/04/02 09:11:14;;;;;;;42.42;14.38;;;32.80;44.10;;;;;;4964714;28;20074;-79
2024/04/02 09:13:40;;;;;;;;;;;32.70;43.80;;;;;;4972531;28;20027;-77
2024/04/02 09:16:10;;;;;;;45.53;14.38;;;33.10;44.60;;;;;;4972530;28;19910;-77
2024/04/02 09:18:37;;;;;;;49.88;14.55;;;32.70;43.00;;;;;;4972867;28;20414;-77
2024/04/02 09:21:03;;;;;;;34.78;12.98;;;32.90;43.00;;;;;;4972586;28;20023;-77
2024/04/02 09:23:30;;;;;;;51.58;15.85;;;32.90;42.30;;;;;;4975096;28;20369;-77
2024/04/02 09:25:57;;;;;;;48.17;15.70;;;32.70;42.90;;;;;;4965816;28;20394;-77
2024/04/02 09:28:23;;;;;;;40.30;14.05;;;33.10;42.60;;;;;;4962750;28;20358;-79
2024/04/02 09:30:49;;;;;;;40.22;12.73;;;33.20;42.30;;;;;;4965404;28;20037;-79
2024/04/02 09:33:18;;;;;;;51.73;15.20;;;33.40;42.10;;;;;;4971449;28;20042;-77
2024/04/02 09:35:54;;;;;;;35.35;12.95;;;33.80;41.70;;;;;;4972465;28;20472;-77
2024/04/02 09:38:21;;;;;;;40.08;14.40;;;34.00;41.20;;;;;;4971837;28;20027;-79
2024/04/02 09:40:49;;;;;;;44.75;14.52;;;33.80;41.60;;;;;;4967990;28;20061;-78
2024/04/02 09:43:18;;;;;;;50.70;14.93;;;33.80;41.40;;;;;;4971715;28;20015;-77
2024/04/02 09:45:46;;;;;;;44.33;14.98;;;34.30;40.90;;;;;;4971998;28;20039;-81
2024/04/02 09:48:13;;;;;;;51.40;13.80;;;34.50;40.80;;;;;;4970516;28;20537;-78
2024/04/02 09:50:41;;;;;;;48.58;14.50;;;34.70;40.50;;;;;;4970122;28;20014;-78
2024/04/02 09:53:10;;;;;;;49.90;13.82;;;35.10;40.00;;;;;;4971959;28;20124;-78
2024/04/02 09:55:36;;;;;;;38.25;13.40;;;35.00;39.80;;;;;;4971668;28;20037;-78
2024/04/02 09:58:02;;;;;;;;;;;34.90;39.70;;;;;;4926616;28;1285349;-82
2024/04/02 10:00:31;;;;;;;47.97;13.83;;;33.70;40.80;;;;;;4972833;28;20028;-79
2024/04/02 10:03:01;;;;;;;31.05;11.38;;;33.50;41.10;;;;;;4971229;28;20035;-81
2024/04/02 10:05:27;;;;;;;45.83;13.90;;;33.50;40.60;;;;;;4972869;28;20022;-78
2024/04/02 10:07:54;;;;;;;45.07;12.03;;;32.10;41.90;;;;;;4970904;28;20030;-79
2024/04/02 10:10:29;;;;;;;106.55;19.50;;;31.30;42.80;;;;;;4972729;28;20307;-78
2024/04/02 10:12:56;;;;;;;36.80;11.35;;;30.30;44.40;;;;;;4972579;28;20027;-79
2024/04/02 10:15:23;;;;;;;51.58;12.60;;;30.20;44.40;;;;;;4974398;28;20090;-78
2024/04/02 10:18:01;;;;;;;39.75;12.68;;;29.30;52.10;;;;;;4974931;28;20073;-78
2024/04/02 10:20:31;;;;;;;57.17;15.90;;;28.50;57.20;;;;;;4966476;28;20031;-78
2024/04/02 10:23:02;;;;;;;44.22;12.45;;;28.10;47.80;;;;;;4973941;28;20094;-79
2024/04/02 10:25:32;;;;;;;37.83;12.95;;;28.10;47.70;;;;;;4965686;28;20380;-79
2024/04/02 10:28:01;;;;;;;38.97;13.70;;;27.80;55.70;;;;;;4975840;28;20050;-79
2024/04/02 10:30:28;;;;;;;47.20;16.00;;;;;;;;;;4976242;28;20053;-80
2024/04/02 10:32:55;;;;;;;46.37;13.13;;;;;;;;;;4976301;28;20019;-77
2024/04/02 10:35:22;;;;;;;35.60;12.90;;;;;;;;;;4974458;28;20377;-78
2024/04/02 10:37:51;;;;;;;48.88;12.85;;;26.80;49.10;;;;;;4976732;28;20018;-78
2024/04/02 10:40:17;;;;;;;36.50;12.65;;;26.60;49.90;;;;;;4975225;28;20030;-79
2024/04/02 10:42:48;;;;;;;38.60;12.75;;;26.00;50.50;;;;;;4976004;28;20097;-77
2024/04/02 10:45:18;;;;;;;46.80;17.10;;;25.40;51.60;;;;;;4975849;28;20046;-79
2024/04/02 10:47:50;;;;;;;38.20;15.07;;;25.00;53.00;;;;;;4974705;28;20576;-79
2024/04/02 10:50:17;;;;;;;42.58;15.32;;;24.50;53.40;;;;;;4975890;28;20620;-78
2024/04/02 10:52:43;;;;;;;28.40;11.93;;;24.60;53.90;;;;;;4974667;28;20388;-79
2024/04/02 10:55:10;;;;;;;38.60;15.05;;;24.60;53.60;;;;;;4975953;28;20039;-78
2024/04/02 10:57:38;;;;;;;50.03;14.67;;;24.50;54.90;;;;;;4975613;28;20023;-78
2024/04/02 11:00:08;;;;;;;39.42;13.73;;;24.60;54.40;;;;;;4975626;28;20046;-77
2024/04/02 11:02:35;;;;;;;54.90;16.75;;;24.40;57.10;;;;;;4975889;28;20396;-79
2024/04/02 11:05:01;;;;;;;101.95;36.97;;;23.40;61.90;;;;;;4972792;28;20037;-79
2024/04/02 11:07:27;;;;;;;144.60;52.38;;;21.50;70.40;;;;;;4974247;28;20022;-80
2024/04/02 11:09:54;;;;;;;240.13;86.30;;;20.10;80.30;;;;;;4975261;28;20045;-79
2024/04/02 11:12:21;;;;;;;93.38;34.05;;;19.10;88.60;;;;;;4973820;28;20399;-79
2024/04/02 11:14:54;;;;;;;41.15;15.43;;;18.30;98.70;;;;;;4975341;28;20054;-80
2024/04/02 11:17:20;;;;;;;59.25;21.27;;;17.60;99.90;;;;;;4975718;28;20030;-85
2024/04/02 11:19:46;;;;;;;39.13;13.87;;;17.30;99.90;;;;;;4976104;28;20106;-83
2024/04/02 11:25:13;;;;;;;53.28;15.15;;;17.20;99.90;;;;;;4979145;28;20045;-90
2024/04/02 11:27:40;;;;;;;51.45;15.38;;;17.70;99.90;;;;;;4978652;28;20038;-85
2024/04/02 11:30:07;;;;;;;49.50;14.43;;;17.80;99.90;;;;;;4981708;28;20029;-87
2024/04/02 11:32:33;;;;;;;47.13;13.60;;;18.00;99.90;;;;;;4982566;28;20031;-86
2024/04/02 11:35:02;;;;;;;35.83;13.40;;;18.20;99.90;;;;;;4988074;28;20027;-85
2024/04/02 11:37:29;;;;;;;59.38;12.77;;;18.50;99.90;;;;;;4968229;28;20026;-84
2024/04/02 11:39:55;;;;;;;;;;;19.10;99.90;;;;;;4978966;28;20519;-85
2024/04/02 11:42:22;;;;;;;48.92;14.73;;;19.50;99.90;;;;;;4976229;28;19914;-87
2024/04/02 11:44:49;;;;;;;62.83;15.02;;;19.90;99.90;;;;;;4975269;28;20534;-83
2024/04/02 11:47:15;;;;;;;;;;;20.10;99.90;;;;;;4979234;28;20070;-87
2024/04/02 11:49:42;;;;;;;45.60;13.63;;;20.30;99.90;;;;;;4978880;28;19982;-86
2024/04/02 11:52:08;;;;;;;43.10;13.55;;;20.50;99.90;;;;;;4979966;28;20033;-87
2024/04/02 11:54:35;;;;;;;40.97;13.15;;;20.60;99.90;;;;;;4985985;28;20476;-88
2024/04/02 12:02:36;;;;;;;44.08;13.88;;;21.10;97.20;;;;;;4975239;28;20131;-82
2024/04/02 12:05:02;;;;;;;57.63;15.65;;;21.30;96.20;;;;;;4975696;28;20101;-85
2024/04/02 12:07:29;;;;;;;61.25;14.77;;;21.60;94.40;;;;;;4975420;28;20023;-85
2024/04/02 12:09:56;;;;;;;44.08;13.32;;;22.00;94.20;;;;;;4973324;28;20065;-83
2024/04/02 12:12:26;;;;;;;41.63;13.35;;;22.30;88.00;;;;;;4974890;28;20126;-86
2024/04/02 12:14:53;;;;;;;49.50;13.52;;;22.40;91.10;;;;;;4976792;28;21046;-84
2024/04/02 12:17:21;;;;;;;53.05;14.20;;;22.70;91.10;;;;;;4977927;28;20045;-86
2024/04/02 12:19:47;;;;;;;53.80;15.43;;;22.80;86.50;;;;;;4976634;28;20480;-88
2024/04/02 12:22:13;;;;;;;49.25;15.00;;;23.10;86.60;;;;;;4966827;28;20090;-86
2024/04/02 12:24:39;;;;;;;53.97;15.15;;;23.50;86.70;;;;;;4979262;28;20023;-87
2024/04/02 12:27:05;;;;;;;51.90;14.82;;;23.70;84.30;;;;;;4990217;28;20019;-89
2024/04/02 12:29:32;;;;;;;52.65;15.65;;;24.00;85.00;;;;;;4988959;28;20494;-88
2024/04/02 12:31:58;;;;;;;56.93;14.80;;;24.20;89.50;;;;;;4974960;28;20090;-86
2024/04/02 12:34:26;;;;;;;38.88;13.88;;;24.40;83.60;;;;;;4974796;28;20034;-88
2024/04/02 12:36:52;;;;;;;52.47;14.95;;;24.30;81.70;;;;;;4968102;28;20105;-87